BWI weather

Baltimore/Washington International Thurgood Marshall Airport
Baltimore, Maryland, United States

Public forecast

Using degrees Fahrenheit for public forecast. Weather courtesy of forecast.io.

METAR (pilot weather report)

Retrieved 2017/07/23 03:54 UTC (20 minutes ago):

KBWI 230354Z 00000KT 10SM FEW011 FEW060 SCT100 OVC250 23/23 A2978 RMK AO2 LTG DSNT S AND SW RAE09 SLP083 FRQ LTGICCG DSNT SE-S CB DSNT SE-S MOV E P0000 T02280228

TAF (pilot weather forecast)

Forecast is more than 12 hours old.

Retrieved 2017/07/22 00:36 UTC (1 day ago):

TAF KBWI 222335Z 2300/2406 26005KT P6SM BKN060 FM230300 24005KT 5SM SHRA VCTS OVC060CB FM230600 25006KT P6SM VCTS BKN060CB FM231100 27006KT P6SM BKN050 FM231800 27006KT P6SM -SHRA VCTS BKN045CB FM240000 VRB04KT P6SM -SHRA BKN040